Time;durP1;ratioP1;P1;durP2;ratioP2;P2;SDS_P1;SDS_P2;PMS_P1;PMS_P2;Temp;Humidity;BMP_temperature;BMP_pressure;BME280_temperature;BME280_humidity;BME280_pressure;Samples;Min_cycle;Max_cycle;Signal;HPM_P1;HPM_P2
2022/04/10 00:00:47;;;;;;;;;;;;;;;7.45;59.60;99197.16;4438994;32;19977;-85
2022/04/10 00:03:12;;;;;;;;;;;;;;;7.59;59.60;99192.44;4424505;32;19973;-85
2022/04/10 00:05:38;;;;;;;;;;;;;;;7.52;59.60;99183.13;4439128;32;20015;-85
2022/04/10 00:08:03;;;;;;;;;;;;;;;7.47;59.60;99191.03;4424715;32;19981;-85
2022/04/10 00:10:28;;;;;;;;;;;;;;;7.57;59.61;99187.31;4439067;32;20048;-85
2022/04/10 00:12:54;;;;;;;;;;;;;;;7.53;59.60;99184.81;4438948;32;19977;-85
2022/04/10 00:15:19;;;;;;;;;;;;;;;7.62;59.61;99179.41;4411877;32;20024;-85
2022/04/10 00:17:44;;;;;;;;;;;;;;;7.80;59.62;99172.81;4438602;32;19974;-83
2022/04/10 00:20:11;;;;;;;;;;;;;;;7.56;59.61;99175.22;4438788;32;20023;-85
2022/04/10 00:22:46;;;;;;;;;;;;;;;7.43;59.59;99171.31;4424963;32;19981;-84
2022/04/10 00:25:12;;;;;;;;;;;;;;;7.42;59.60;99161.00;4424630;32;20238;-85
2022/04/10 00:27:37;;;;;;;;;;;;;;;7.52;59.60;99171.03;4438588;32;19992;-85
2022/04/10 00:30:03;;;;;;;;;;;;;;;7.27;59.59;99173.47;4438597;32;19973;-85
2022/04/10 00:32:28;;;;;;;;;;;;;;;7.24;59.60;99173.56;4421854;32;20048;-84
2022/04/10 00:34:54;;;;;;;;;;;;;;;7.24;59.58;99177.87;4423263;32;19988;-84
2022/04/10 00:37:19;;;;;;;;;;;;;;;7.31;59.59;99184.59;4423346;32;20319;-84
2022/04/10 00:39:44;;;;;;;;;;;;;;;7.10;59.58;99178.28;4426359;32;20003;-85
2022/04/10 00:42:09;;;;;;;;;;;;;;;6.97;59.57;99187.25;4440820;32;20019;-84
2022/04/10 00:44:35;;;;;;;;;;;;;;;7.13;59.58;99191.13;4426422;32;19978;-84
2022/04/10 00:47:00;;;;;;;;;;;;;;;7.11;59.58;99190.34;4426587;32;20049;-85
2022/04/10 00:49:25;;;;;;;;;;;;;;;7.03;59.58;99187.94;4426789;32;20294;-85
2022/04/10 00:51:52;;;;;;;;;;;;;;;7.12;59.58;99186.84;4426683;32;19996;-85
2022/04/10 00:54:18;;;;;;;;;;;;;;;6.96;59.57;99199.34;4427041;32;19965;-85
2022/04/10 00:56:43;;;;;;;;;;;;;;;6.99;59.57;99209.59;4413869;32;20038;-85
2022/04/10 00:59:09;;;;;;;;;;;;;;;6.82;59.56;99216.94;4426601;32;19985;-85
2022/04/10 01:01:34;;;;;;;;;;;;;;;6.96;59.57;99219.19;4426597;32;20311;-85
2022/04/10 01:03:59;;;;;;;;;;;;;;;6.70;59.55;99222.44;4440625;32;20017;-86
2022/04/10 01:06:25;;;;;;;;;;;;;;;6.70;59.55;99232.78;4426559;32;20023;-85
2022/04/10 01:08:50;;;;;;;;;;;;;;;6.54;59.55;99234.03;4426268;32;19982;-84
2022/04/10 01:11:15;;;;;;;;;;;;;;;6.58;59.55;99235.66;4425939;32;25466;-84
2022/04/10 01:13:41;;;;;;;;;;;;;;;6.64;59.55;99232.94;4426514;32;19969;-85
2022/04/10 01:16:06;;;;;;;;;;;;;;;6.56;59.54;99240.00;4440494;32;19986;-86
2022/04/10 01:18:31;;;;;;;;;;;;;;;6.39;59.54;99238.69;4426417;32;20012;-84
2022/04/10 01:20:57;;;;;;;;;;;;;;;6.59;59.55;99242.53;4440504;32;19981;-85
2022/04/10 01:23:22;;;;;;;;;;;;;;;6.54;59.55;99242.62;4426469;32;20228;-85
2022/04/10 01:25:47;;;;;;;;;;;;;;;6.57;59.54;99241.72;4426490;32;20005;-85
2022/04/10 01:28:13;;;;;;;;;;;;;;;6.60;59.55;99239.03;4425808;32;23809;-85
2022/04/10 01:30:38;;;;;;;;;;;;;;;6.46;59.54;99247.16;4440376;32;20009;-84
2022/04/10 01:33:04;;;;;;;;;;;;;;;6.54;59.54;99252.13;4426362;32;20408;-84
2022/04/10 01:35:29;;;;;;;;;;;;;;;6.54;59.55;99257.31;4440374;32;19989;-85
2022/04/10 01:37:54;;;;;;;;;;;;;;;6.47;59.54;99252.28;4426330;32;20003;-85
2022/04/10 01:40:20;;;;;;;;;;;;;;;6.24;59.53;99258.84;4426266;32;19986;-85
2022/04/10 01:42:45;;;;;;;;;;;;;;;6.24;59.53;99261.44;4440469;32;19962;-85
2022/04/10 01:45:10;;;;;;;;;;;;;;;6.25;59.53;99263.13;4439793;32;22562;-84
2022/04/10 01:47:35;;;;;;;;;;;;;;;6.27;59.53;99261.37;4440188;32;19981;-85
2022/04/10 01:50:01;;;;;;;;;;;;;;;6.13;59.53;99265.09;4425963;32;19982;-85
2022/04/10 01:52:26;;;;;;;;;;;;;;;6.06;59.52;99262.69;4426315;32;20332;-85
2022/04/10 01:54:52;;;;;;;;;;;;;;;5.85;59.51;99266.53;4440252;32;19982;-85
2022/04/10 01:57:17;;;;;;;;;;;;;;;5.92;59.51;99264.72;4413440;32;19989;-85
2022/04/10 01:59:42;;;;;;;;;;;;;;;5.96;59.51;99253.44;4440207;32;20015;-85
2022/04/10 02:02:07;;;;;;;;;;;;;;;5.93;59.51;99256.94;4439580;32;31465;-84
2022/04/10 02:04:33;;;;;;;;;;;;;;;5.95;59.51;99254.34;4413239;32;19982;-85
2022/04/10 02:06:58;;;;;;;;;;;;;;;6.01;59.52;99261.94;4425805;32;20760;-85
2022/04/10 02:09:23;;;;;;;;;;;;;;;6.01;59.52;99256.78;4439655;32;21757;-86
2022/04/10 02:11:49;;;;;;;;;;;;;;;5.98;59.52;99257.69;4426205;32;20013;-85
2022/04/10 02:14:15;;;;;;;;;;;;;;;6.05;59.51;99261.00;4426294;32;20333;-85
2022/04/10 02:16:40;;;;;;;;;;;;;;;6.11;59.52;99256.53;4440104;32;19977;-85
2022/04/10 02:19:05;;;;;;;;;;;;;;;5.95;59.51;99272.41;4440169;32;19981;-85
2022/04/10 02:21:31;;;;;;;;;;;;;;;6.03;59.52;99266.19;4439812;32;19966;-84
2022/04/10 02:23:56;;;;;;;;;;;;;;;5.95;59.51;99275.84;4440118;32;20000;-85
2022/04/10 02:26:21;;;;;;;;;;;;;;;6.02;59.51;99284.31;4439430;32;31480;-85
2022/04/10 02:28:46;;;;;;;;;;;;;;;6.05;59.51;99292.00;4425893;32;19969;-85
2022/04/10 02:31:12;;;;;;;;;;;;;;;6.03;59.52;99292.03;4439661;32;19996;-85
2022/04/10 02:33:37;;;;;;;;;;;;;;;6.10;59.52;99288.41;4440064;32;20353;-85
2022/04/10 02:36:02;;;;;;;;;;;;;;;6.25;59.52;99297.59;4425983;32;19981;-85
2022/04/10 02:38:28;;;;;;;;;;;;;;;6.17;59.53;99288.31;4440045;32;20007;-85
2022/04/10 02:40:53;;;;;;;;;;;;;;;6.01;59.51;99298.13;4440023;32;19962;-84
2022/04/10 02:43:19;;;;;;;;;;;;;;;6.06;59.52;99296.28;4425992;32;20039;-84
2022/04/10 02:45:44;;;;;;;;;;;;;;;6.20;59.53;99299.44;4440032;32;20000;-84
2022/04/10 02:48:10;;;;;;;;;;;;;;;6.09;59.52;99297.06;4439819;32;20296;-85
2022/04/10 02:50:35;;;;;;;;;;;;;;;6.12;59.51;99301.31;4425866;32;19987;-85
2022/04/10 02:53:01;;;;;;;;;;;;;;;6.02;59.51;99305.81;4439850;32;19981;-85
2022/04/10 02:55:26;;;;;;;;;;;;;;;5.99;59.52;99302.47;4439922;32;19978;-85
2022/04/10 02:57:51;;;;;;;;;;;;;;;6.18;59.52;99298.63;4439062;32;31390;-85
2022/04/10 03:00:16;;;;;;;;;;;;;;;6.37;59.53;99302.47;4439089;32;20296;-85
2022/04/10 03:02:42;;;;;;;;;;;;;;;6.27;59.52;99311.31;4439747;32;19989;-85
2022/04/10 03:05:07;;;;;;;;;;;;;;;6.29;59.53;99311.28;4425900;32;19985;-85
2022/04/10 03:07:33;;;;;;;;;;;;;;;6.06;59.52;99317.78;4412873;32;19995;-85
2022/04/10 03:09:58;;;;;;;;;;;;;;;5.96;59.51;99330.94;4425196;32;24542;-85
2022/04/10 03:12:23;;;;;;;;;;;;;;;5.81;59.50;99332.91;4439092;32;30415;-85
2022/04/10 03:14:48;;;;;;;;;;;;;;;5.74;59.49;99340.81;4425659;32;20325;-85
2022/04/10 03:17:14;;;;;;;;;;;;;;;6.07;59.52;99334.16;4438922;32;31363;-85
2022/04/10 03:19:39;;;;;;;;;;;;;;;5.92;59.51;99335.31;4425252;32;20021;-85
2022/04/10 03:22:05;;;;;;;;;;;;;;;5.85;59.50;99334.53;4425680;32;20008;-85
2022/04/10 03:24:30;;;;;;;;;;;;;;;5.82;59.50;99344.09;4439596;32;20266;-85
2022/04/10 03:26:55;;;;;;;;;;;;;;;5.84;59.51;99337.16;4439607;32;19989;-84
2022/04/10 03:29:20;;;;;;;;;;;;;;;5.91;59.52;99348.25;4438698;32;30999;-85
2022/04/10 03:31:46;;;;;;;;;;;;;;;5.74;59.50;99349.41;4439436;32;20047;-84
2022/04/10 03:34:11;;;;;;;;;;;;;;;5.83;59.51;99351.81;4439457;32;20273;-84
2022/04/10 03:36:36;;;;;;;;;;;;;;;5.66;59.49;99359.00;4424600;32;28855;-84
2022/04/10 03:39:02;;;;;;;;;;;;;;;5.77;59.51;99353.66;4425138;32;19981;-84
2022/04/10 03:41:27;;;;;;;;;;;;;;;5.82;59.50;99360.44;4439235;32;20311;-85
2022/04/10 03:43:52;;;;;;;;;;;;;;;5.77;59.51;99364.00;4425564;32;20016;-85
2022/04/10 03:46:17;;;;;;;;;;;;;;;5.81;59.50;99363.91;4439581;32;20376;-85
2022/04/10 03:48:42;;;;;;;;;;;;;;;5.86;59.50;99367.22;4425402;32;20015;-85
2022/04/10 03:51:08;;;;;;;;;;;;;;;6.01;59.52;99367.87;4412553;32;20019;-85
2022/04/10 03:53:34;;;;;;;;;;;;;;;5.94;59.51;99369.72;4439194;32;20008;-85
2022/04/10 03:55:59;;;;;;;;;;;;;;;5.80;59.50;99369.09;4439484;32;19973;-85
2022/04/10 03:58:24;;;;;;;;;;;;;;;5.97;59.51;99376.56;4425235;32;19977;-84
2022/04/10 04:00:50;;;;;;;;;;;;;;;5.76;59.51;99381.22;4439297;32;20043;-84
2022/04/10 04:03:15;;;;;;;;;;;;;;;5.76;59.50;99376.06;4425421;32;19985;-85
2022/04/10 04:05:40;;;;;;;;;;;;;;;5.74;59.50;99382.13;4424910;32;20295;-84
2022/04/10 04:08:05;;;;;;;;;;;;;;;5.82;59.50;99388.00;4425113;32;20286;-85
2022/04/10 04:10:32;;;;;;;;;;;;;;;5.81;59.50;99381.97;4425073;32;19993;-85
2022/04/10 04:12:58;;;;;;;;;;;;;;;5.50;59.49;99394.59;4426753;32;20047;-85
2022/04/10 04:15:24;;;;;;;;;;;;;;;5.47;59.49;99393.78;4427332;32;19989;-84
2022/04/10 04:17:49;;;;;;;;;;;;;;;5.35;59.48;99394.00;4427246;32;20001;-85
2022/04/10 04:20:14;;;;;;;;;;;;;;;5.25;59.48;99403.62;4413932;32;20290;-85
2022/04/10 04:22:39;;;;;;;;;;;;;;;5.23;59.46;99403.66;4414306;32;19985;-85
2022/04/10 04:25:06;;;;;;;;;;;;;;;5.37;59.48;99395.66;4441225;32;19978;-85
2022/04/10 04:27:31;;;;;;;;;;;;;;;5.38;59.48;99397.38;4441064;32;19996;-85
2022/04/10 04:29:56;;;;;;;;;;;;;;;5.28;59.47;99400.97;4426297;32;26991;-85
2022/04/10 04:32:21;;;;;;;;;;;;;;;5.09;59.47;99403.00;4426907;32;20353;-84
2022/04/10 04:34:47;;;;;;;;;;;;;;;5.17;59.47;99398.56;4426401;32;25202;-85
2022/04/10 04:37:12;;;;;;;;;;;;;;;5.17;59.47;99408.03;4427095;32;19981;-85
2022/04/10 04:39:38;;;;;;;;;;;;;;;5.27;59.48;99411.34;4440973;32;19981;-85
2022/04/10 04:42:03;;;;;;;;;;;;;;;5.21;59.47;99422.63;4427010;32;20325;-85
2022/04/10 04:44:31;;;;;;;;;;;;;;;5.36;59.48;99417.19;4414066;32;20016;-85
2022/04/10 04:46:57;;;;;;;;;;;;;;;5.41;59.48;99417.09;4441144;32;19986;-85
2022/04/10 04:49:22;;;;;;;;;;;;;;;5.50;59.49;99420.41;4440925;32;20016;-84
2022/04/10 04:51:47;;;;;;;;;;;;;;;5.53;59.49;99422.94;4440939;32;20113;-85
2022/04/10 04:54:12;;;;;;;;;;;;;;;5.76;59.51;99417.38;4440579;32;20019;-85
2022/04/10 04:56:38;;;;;;;;;;;;;;;5.84;59.51;99425.81;4426926;32;19978;-84
2022/04/10 04:59:03;;;;;;;;;;;;;;;6.05;59.51;99428.94;4440815;32;19975;-85
2022/04/10 05:01:28;;;;;;;;;;;;;;;5.98;59.51;99432.50;4426879;32;19989;-85
2022/04/10 05:03:53;;;;;;;;;;;;;;;5.99;59.52;99435.06;4426848;32;19994;-85
2022/04/10 05:06:19;;;;;;;;;;;;;;;5.94;59.51;99442.06;4426805;32;20032;-84
2022/04/10 05:08:47;;;;;;;;;;;;;;;5.83;59.51;99444.78;4426768;32;20008;-84
2022/04/10 05:11:15;;;;;;;;;;;;;;;5.74;59.50;99447.53;4427234;32;20378;-85
2022/04/10 05:13:41;;;;;;;;;;;;;;;6.01;59.52;99453.13;4440795;32;19977;-85
2022/04/10 05:16:06;;;;;;;;;;;;;;;5.87;59.51;99464.50;4426670;32;19999;-84
2022/04/10 05:18:31;;;;;;;;;;;;;;;6.16;59.53;99473.53;4426387;32;20366;-84
2022/04/10 05:20:56;;;;;;;;;;;;;;;6.05;59.51;99465.94;4440852;32;20295;-84
2022/04/10 05:23:22;;;;;;;;;;;;;;;5.97;59.51;99464.41;4440195;32;19981;-84
2022/04/10 05:25:47;;;;;;;;;;;;;;;5.95;59.51;99463.56;4426177;32;28799;-85
2022/04/10 05:28:12;;;;;;;;;;;;;;;6.22;59.53;99462.22;4440501;32;20305;-85
2022/04/10 05:30:38;;;;;;;;;;;;;;;6.24;59.53;99470.78;4426856;32;20031;-85
2022/04/10 05:33:03;;;;;;;;;;;;;;;6.25;59.53;99481.09;4440582;32;19973;-85
2022/04/10 05:35:28;;;;;;;;;;;;;;;6.35;59.54;99476.59;4440653;32;19993;-84
2022/04/10 05:37:53;;;;;;;;;;;;;;;6.35;59.54;99481.75;4426505;32;20008;-84
2022/04/10 05:40:19;;;;;;;;;;;;;;;6.42;59.53;99485.94;4425866;32;20064;-85
2022/04/10 05:42:44;;;;;;;;;;;;;;;6.47;59.54;99490.16;4440317;32;20065;-86
2022/04/10 05:45:10;;;;;;;;;;;;;;;6.52;59.54;99487.47;4440656;32;20351;-86
2022/04/10 05:47:36;;;;;;;;;;;;;;;6.34;59.53;99488.66;4426395;32;20038;-84
2022/04/10 05:50:01;;;;;;;;;;;;;;;6.32;59.53;99490.44;4440644;32;19999;-84
2022/04/10 05:52:27;;;;;;;;;;;;;;;6.40;59.54;99483.41;4426404;32;19989;-85
2022/04/10 05:54:52;;;;;;;;;;;;;;;6.59;59.55;99496.78;4440617;32;20302;-85
2022/04/10 05:57:17;;;;;;;;;;;;;;;6.93;59.56;99499.56;4440441;32;20325;-85
2022/04/10 05:59:42;;;;;;;;;;;;;;;6.98;59.57;99492.53;4425864;32;23382;-84
2022/04/10 06:02:07;;;;;;;;;;;;;;;6.99;59.57;99504.59;4413638;32;19989;-84
2022/04/10 06:04:33;;;;;;;;;;;;;;;7.14;59.58;99489.63;4440543;32;19966;-85
2022/04/10 06:06:58;;;;;;;;;;;;;;;7.24;59.58;99498.87;4413056;32;25458;-86
2022/04/10 06:09:23;;;;;;;;;;;;;;;7.18;59.59;99499.03;4425872;32;22770;-85
2022/04/10 06:11:48;;;;;;;;;;;;;;;7.35;59.59;99497.75;4413482;32;20369;-85
2022/04/10 06:14:14;;;;;;;;;;;;;;;7.30;59.58;99497.00;4440234;32;19988;-85
2022/04/10 06:16:39;;;;;;;;;;;;;;;7.43;59.60;99500.16;4413230;32;20047;-85
2022/04/10 06:19:04;;;;;;;;;;;;;;;7.49;59.60;99499.16;4439805;32;19992;-85
2022/04/10 06:21:29;;;;;;;;;;;;;;;7.60;59.60;99502.38;4440433;32;19995;-85
2022/04/10 06:23:55;;;;;;;;;;;;;;;7.57;59.61;99502.41;4426266;32;19969;-84
2022/04/10 06:26:20;;;;;;;;;;;;;;;7.72;59.61;99498.63;4426380;32;19997;-85
2022/04/10 06:28:45;;;;;;;;;;;;;;;7.63;59.61;99512.66;4413386;32;20013;-85
2022/04/10 06:31:10;;;;;;;;;;;;;;;7.66;59.60;99508.25;4440066;32;19999;-85
2022/04/10 06:33:36;;;;;;;;;;;;;;;7.70;59.61;99512.47;4440246;32;20261;-85
2022/04/10 06:36:01;;;;;;;;;;;;;;;7.52;59.60;99512.03;4438714;32;19992;-85
2022/04/10 06:38:26;;;;;;;;;;;;;;;7.68;59.60;99510.78;4413543;32;20025;-86
2022/04/10 06:40:51;;;;;;;;;;;;;;;7.68;59.61;99514.25;4440233;32;20286;-86
2022/04/10 06:43:17;;;;;;;;;;;;;;;7.83;59.62;99525.12;4440176;32;20005;-85
2022/04/10 06:45:42;;;;;;;;;;;;;;;7.87;59.62;99521.56;4426209;32;19993;-86
2022/04/10 06:48:08;;;;;;;;;;;;;;;8.06;59.63;99538.38;4413299;32;20037;-86
2022/04/10 06:50:33;;;;;;;;;;;;;;;7.98;59.62;99533.34;4440237;32;19992;-85
2022/04/10 06:52:58;;;;;;;;;;;;;;;7.88;59.62;99541.41;4426149;32;20015;-86
2022/04/10 06:55:23;;;;;;;;;;;;;;;8.12;59.63;99540.81;4439308;32;28556;-85
2022/04/10 06:57:49;;;;;;;;;;;;;;;8.07;59.62;99539.22;4440059;32;20357;-85
2022/04/10 07:00:14;;;;;;;;;;;;;;;8.36;59.64;99536.75;4440215;32;19985;-85
2022/04/10 07:02:39;;;;;;;;;;;;;;;8.54;59.65;99533.69;4440090;32;19973;-86
2022/04/10 07:05:05;;;;;;;;;;;;;;;8.80;59.66;99535.56;4425676;32;21756;-86
2022/04/10 07:07:30;;;;;;;;;;;;;;;8.57;59.65;99540.53;4413004;32;20004;-85
2022/04/10 07:09:56;;;;;;;;;;;;;;;8.72;59.67;99534.91;4439770;32;19989;-85
2022/04/10 07:12:21;;;;;;;;;;;;;;;8.77;59.67;99543.44;4439867;32;19969;-85
2022/04/10 07:14:46;;;;;;;;;;;;;;;9.13;59.69;99546.69;4439581;32;19982;-86
2022/04/10 07:17:12;;;;;;;;;;;;;;;9.38;59.70;99533.81;4439843;32;19977;-85
2022/04/10 07:19:37;;;;;;;;;;;;;;;9.44;59.70;99545.78;4425765;32;19995;-85
2022/04/10 07:24:46;;;;;;;;;;;;;;;9.75;59.72;99546.53;4439626;32;20004;-85
2022/04/10 07:27:11;;;;;;;;;;;;;;;9.77;59.72;99547.34;4438989;32;23336;-86
2022/04/10 07:29:37;;;;;;;;;;;;;;;9.57;59.70;99551.47;4412562;32;19992;-86
2022/04/10 07:32:03;;;;;;;;;;;;;;;9.47;59.71;99562.16;4412458;32;20278;-84
2022/04/10 07:34:29;;;;;;;;;;;;;;;8.71;59.67;99547.91;4439510;32;19974;-85
2022/04/10 07:36:54;;;;;;;;;;;;;;;9.02;59.68;99560.91;4438881;32;27511;-85
2022/04/10 07:39:19;;;;;;;;;;;;;;;9.13;59.69;99564.88;4425323;32;19990;-86
2022/04/10 07:41:44;;;;;;;;;;;;;;;9.26;59.70;99562.78;4425371;32;19982;-85
2022/04/10 07:44:10;;;;;;;;;;;;;;;9.54;59.71;99566.25;4424543;32;29523;-85
2022/04/10 07:49:19;;;;;;;;;;;;;;;9.87;59.73;99567.81;4444378;32;20007;-86
2022/04/10 07:51:44;;;;;;;;;;;;;;;9.99;59.74;99570.03;4444419;32;20323;-85
2022/04/10 07:54:11;;;;;;;;;;;;;;;10.02;59.73;99564.75;4429909;32;22375;-86
2022/04/10 07:56:36;;;;;;;;;;;;;;;10.10;59.75;99568.78;4430495;32;20020;-86
2022/04/10 07:59:01;;;;;;;;;;;;;;;10.36;59.76;99573.13;4444288;32;20281;-86
2022/04/10 08:01:26;;;;;;;;;;;;;;;10.58;59.77;99573.25;4444186;32;19989;-86
2022/04/10 08:03:53;;;;;;;;;;;;;;;10.54;59.76;99578.62;4430196;32;19993;-85
2022/04/10 08:06:18;;;;;;;;;;;;;;;10.43;59.76;99584.22;4444247;32;19978;-85
2022/04/10 08:08:44;;;;;;;;;;;;;;;10.49;59.77;99583.16;4444014;32;19992;-86
2022/04/10 08:11:09;;;;;;;;;;;;;;;10.63;59.78;99584.34;4416476;32;20009;-85
2022/04/10 08:13:34;;;;;;;;;;;;;;;10.43;59.76;99592.88;4443639;32;20008;-85
2022/04/10 08:15:59;;;;;;;;;;;;;;;10.49;59.77;99581.41;4443763;32;19996;-84
2022/04/10 08:18:25;;;;;;;;;;;;;;;10.64;59.78;99586.06;4416943;32;20033;-85
2022/04/10 08:20:51;;;;;;;;;;;;;;;10.51;59.77;99578.75;4442370;32;21384;-86
2022/04/10 08:23:17;;;;;;;;;;;;;;;10.52;59.77;99585.62;4429261;32;19993;-86
2022/04/10 08:25:42;;;;;;;;;;;;;;;10.56;59.77;99585.47;4416508;32;20330;-85
2022/04/10 08:28:07;;;;;;;;;;;;;;;10.66;59.77;99584.28;4428652;32;20350;-86
2022/04/10 08:30:33;;;;;;;;;;;;;;;10.57;59.77;99578.53;4443509;32;20013;-85
2022/04/10 08:32:58;;;;;;;;;;;;;;;10.91;59.78;99583.41;4442783;32;19982;-86
2022/04/10 08:35:23;;;;;;;;;;;;;;;10.63;59.78;99586.09;4416297;32;20617;-87
2022/04/10 08:37:49;;;;;;;;;;;;;;;10.70;59.78;99591.06;4416364;32;20031;-86
2022/04/10 08:40:14;;;;;;;;;;;;;;;10.66;59.77;99586.03;4416044;32;19981;-89
2022/04/10 08:42:39;;;;;;;;;;;;;;;10.71;59.78;99587.56;4428342;32;20047;-85
2022/04/10 08:45:08;;;;;;;;;;;;;;;10.77;59.78;99579.53;4428980;32;19990;-85
2022/04/10 08:47:33;;;;;;;;;;;;;;;10.81;59.78;99592.44;4428726;32;19982;-85
2022/04/10 08:49:59;;;;;;;;;;;;;;;10.77;59.79;99587.34;4416148;32;20350;-84
2022/04/10 08:52:25;;;;;;;;;;;;;;;10.83;59.78;99604.50;4429044;32;20012;-85
2022/04/10 08:54:50;;;;;;;;;;;;;;;10.99;59.79;99602.19;4428470;32;22532;-86
2022/04/10 08:57:15;;;;;;;;;;;;;;;11.04;59.79;99618.50;4428583;32;20370;-91
2022/04/10 08:59:41;;;;;;;;;;;;;;;10.94;59.79;99604.97;4426168;32;19990;-89
2022/04/10 09:02:06;;;;;;;;;;;;;;;11.06;59.79;99596.69;4426676;32;20069;-89
2022/04/10 09:04:31;;;;;;;;;;;;;;;10.92;59.79;99600.72;4413834;32;19993;-89
2022/04/10 09:07:03;;;;;;;;;;;;;;;10.86;59.79;99612.19;4440546;32;19981;-89
2022/04/10 09:09:29;;;;;;;;;;;;;;;11.02;59.80;99602.94;4426533;32;20029;-89
2022/04/10 09:11:54;;;;;;;;;;;;;;;11.15;59.81;99612.91;4426635;32;19981;-87
2022/04/10 09:14:20;;;;;;;;;;;;;;;11.09;59.81;99611.38;4426606;32;20025;-87
2022/04/10 09:16:45;;;;;;;;;;;;;;;10.92;59.79;99600.72;4426554;32;19970;-87
2022/04/10 09:19:10;;;;;;;;;;;;;;;10.99;59.79;99600.44;4425542;32;22541;-87
2022/04/10 09:21:37;;;;;;;;;;;;;;;11.17;59.81;99592.88;4439163;32;27651;-88
2022/04/10 09:24:02;;;;;;;;;;;;;;;11.27;59.81;99615.91;4426502;32;20346;-86
2022/04/10 09:26:40;;;;;;;;;;;;;;;11.17;59.80;99598.94;4440470;32;20016;-87
2022/04/10 09:29:06;;;;;;;;;;;;;;;11.01;59.80;99601.22;4426043;32;20315;-86
2022/04/10 09:31:34;;;;;;;;;;;;;;;11.27;59.81;99592.47;4425544;32;19988;-86
2022/04/10 09:34:03;;;;;;;;;;;;;;;11.36;59.81;99599.94;4440035;32;20020;-87
2022/04/10 09:36:29;;;;;;;;;;;;;;;11.52;59.82;99601.97;4425458;32;19973;-88
2022/04/10 09:38:54;;;;;;;;;;;;;;;11.28;59.81;99607.19;4437689;32;19992;-85
2022/04/10 09:41:20;;;;;;;;;;;;;;;11.55;59.83;99609.66;4429693;32;20043;-85
2022/04/10 09:43:45;;;;;;;;;;;;;;;11.61;59.84;99599.88;4422922;32;20019;-86
2022/04/10 09:46:13;;;;;;;;;;;;;;;11.65;59.83;99606.66;4408548;32;20024;-86
2022/04/10 09:48:39;;;;;;;;;;;;;;;11.45;59.81;99622.19;4419399;32;19999;-85
2022/04/10 09:51:04;;;;;;;;;;;;;;;11.67;59.84;99612.66;4420452;32;20338;-85
2022/04/10 09:53:30;;;;;;;;;;;;;;;11.82;59.84;99612.97;4407811;32;19990;-87
2022/04/10 09:55:56;;;;;;;;;;;;;;;11.77;59.84;99607.91;4407680;32;19982;-86
2022/04/10 09:58:21;;;;;;;;;;;;;;;11.59;59.83;99604.28;4407535;32;20009;-86
2022/04/10 10:00:47;;;;;;;;;;;;;;;11.47;59.82;99612.56;4408112;32;19990;-84
2022/04/10 10:03:12;;;;;;;;;;;;;;;11.55;59.83;99607.91;4407479;32;20766;-85
2022/04/10 10:05:38;;;;;;;;;;;;;;;11.84;59.85;99617.25;4408543;32;19994;-84
2022/04/10 10:08:04;;;;;;;;;;;;;;;11.75;59.83;99614.09;4396235;32;19997;-85
2022/04/10 10:10:30;;;;;;;;;;;;;;;11.62;59.83;99603.31;4422360;32;19985;-86
2022/04/10 10:12:56;;;;;;;;;;;;;;;11.91;59.85;99608.28;4408917;32;20009;-87
2022/04/10 10:15:21;;;;;;;;;;;;;;;12.13;59.86;99600.44;4408615;32;20254;-87
2022/04/10 10:17:46;;;;;;;;;;;;;;;12.35;59.88;99597.78;4408623;32;25348;-88
2022/04/10 10:20:12;;;;;;;;;;;;;;;12.20;59.86;99601.03;4409457;32;20016;-87
2022/04/10 10:22:37;;;;;;;;;;;;;;;12.13;59.86;99613.47;4409394;32;20457;-86
2022/04/10 10:25:07;;;;;;;;;;;;;;;12.22;59.87;99609.63;4409348;32;19993;-86
2022/04/10 10:27:42;;;;;;;;;;;;;;;11.95;59.85;99609.00;4423625;32;19965;-88
2022/04/10 10:30:29;;;;;;;;;;;;;;;12.14;59.86;99606.50;4424214;32;19978;-86
2022/04/10 10:32:56;;;;;;;;;;;;;;;11.85;59.85;99611.13;4424427;32;20000;-85
2022/04/10 10:35:28;;;;;;;;;;;;;;;11.98;59.86;99607.09;4410613;32;19981;-86
2022/04/10 10:37:54;;;;;;;;;;;;;;;12.06;59.85;99609.41;4410525;32;19988;-86
2022/04/10 10:40:19;;;;;;;;;;;;;;;12.25;59.86;99605.13;4410261;32;20047;-87
2022/04/10 10:42:45;;;;;;;;;;;;;;;12.04;59.86;99612.97;4410301;32;20039;-87
2022/04/10 10:45:10;;;;;;;;;;;;;;;11.72;59.84;99617.69;4410079;32;19973;-87
2022/04/10 10:47:35;;;;;;;;;;;;;;;11.88;59.85;99613.63;4424344;32;20141;-88
2022/04/10 10:50:01;;;;;;;;;;;;;;;12.22;59.87;99610.50;4422778;32;20038;-85
2022/04/10 10:52:27;;;;;;;;;;;;;;;12.47;59.88;99618.16;4409835;32;20320;-85
2022/04/10 10:54:56;;;;;;;;;;;;;;;12.34;59.87;99611.75;4409970;32;20397;-87
2022/04/10 10:57:25;;;;;;;;;;;;;;;12.28;59.88;99614.59;4410134;32;19989;-86
2022/04/10 11:00:10;;;;;;;;;;;;;;;12.29;59.88;99603.25;4422813;32;19998;-86
2022/04/10 11:02:36;;;;;;;;;;;;;;;12.35;59.87;99610.00;4423141;32;19993;-87
2022/04/10 11:05:07;;;;;;;;;;;;;;;12.30;59.87;99615.38;4410506;32;19982;-87
2022/04/10 11:07:39;;;;;;;;;;;;;;;12.27;59.86;99603.31;4409981;32;20045;-88
2022/04/10 11:10:09;;;;;;;;;;;;;;;12.41;59.87;99607.13;4411104;32;20334;-88
2022/04/10 11:12:47;;;;;;;;;;;;;;;12.56;59.89;99609.09;4423049;32;20001;-85
2022/04/10 11:15:12;;;;;;;;;;;;;;;12.23;59.87;99616.56;4397599;32;20005;-88
2022/04/10 11:17:39;;;;;;;;;;;;;;;12.15;59.86;99609.03;4424302;32;19992;-87
2022/04/10 11:20:05;;;;;;;;;;;;;;;12.43;59.88;99598.31;4424269;32;19997;-87
2022/04/10 11:22:32;;;;;;;;;;;;;;;12.47;59.88;99604.25;4422540;32;19999;-87
2022/04/10 11:24:58;;;;;;;;;;;;;;;12.53;59.88;99609.19;4409901;32;19996;-86
2022/04/10 11:27:42;;;;;;;;;;;;;;;12.48;59.88;99613.78;4424064;32;19986;-86
2022/04/10 11:30:07;;;;;;;;;;;;;;;12.55;59.88;99589.97;4423961;32;19978;-88
2022/04/10 11:32:46;;;;;;;;;;;;;;;12.55;59.89;99592.59;4423640;32;19974;-87
2022/04/10 11:35:15;;;;;;;;;;;;;;;12.47;59.88;99584.22;4409893;32;20251;-88
2022/04/10 11:37:41;;;;;;;;;;;;;;;12.63;59.89;99588.78;4409889;32;20045;-85
2022/04/10 11:40:07;;;;;;;;;;;;;;;12.66;59.89;99578.22;4410094;32;20008;-86
2022/04/10 11:42:32;;;;;;;;;;;;;;;12.54;59.88;99582.22;4409508;32;20138;-84
2022/04/10 11:44:57;;;;;;;;;;;;;;;12.47;59.88;99588.59;4409799;32;19985;-86
2022/04/10 11:47:22;;;;;;;;;;;;;;;12.44;59.88;99600.00;4409458;32;19996;-86
2022/04/10 11:49:52;;;;;;;;;;;;;;;12.17;59.86;99620.28;4409647;32;20008;-87
2022/04/10 11:52:17;;;;;;;;;;;;;;;12.25;59.86;99592.09;4423508;32;19990;-86
2022/04/10 11:54:43;;;;;;;;;;;;;;;12.49;59.88;99595.44;4409686;32;19994;-88
2022/04/10 11:57:08;;;;;;;;;;;;;;;12.80;59.91;99597.59;4408938;32;25829;-87
2022/04/10 11:59:37;;;;;;;;;;;;;;;12.77;59.90;99594.25;4409510;32;20001;-86
2022/04/10 12:02:03;;;;;;;;;;;;;;;12.63;59.89;99601.84;4422617;32;19977;-87
2022/04/10 12:04:29;;;;;;;;;;;;;;;12.46;59.88;99607.78;4420865;32;20000;-87
2022/04/10 12:07:08;;;;;;;;;;;;;;;12.51;59.89;99598.81;4407449;32;20033;-87
2022/04/10 12:09:33;;;;;;;;;;;;;;;12.73;59.90;99618.81;4408255;32;20004;-86
2022/04/10 12:11:59;;;;;;;;;;;;;;;12.67;59.90;99612.09;4408792;32;20247;-85
2022/04/10 12:14:24;;;;;;;;;;;;;;;12.48;59.88;99601.56;4408797;32;20016;-86
2022/04/10 12:16:52;;;;;;;;;;;;;;;12.39;59.87;99609.81;4422692;32;19982;-85
2022/04/10 12:19:27;;;;;;;;;;;;;;;12.39;59.87;99612.41;4422788;32;20089;-86
2022/04/10 12:21:53;;;;;;;;;;;;;;;12.34;59.87;99609.16;4422278;32;20044;-86
2022/04/10 12:24:19;;;;;;;;;;;;;;;12.15;59.86;99618.63;4420669;32;19990;-86
2022/04/10 12:26:48;;;;;;;;;;;;;;;12.34;59.87;99616.97;4408571;32;20120;-86
2022/04/10 12:29:14;;;;;;;;;;;;;;;12.55;59.88;99599.56;4408459;32;20251;-86
2022/04/10 12:31:41;;;;;;;;;;;;;;;12.37;59.88;99608.16;4408277;32;20013;-88
2022/04/10 12:34:08;;;;;;;;;;;;;;;12.58;59.89;99621.19;4410674;32;20329;-86
2022/04/10 12:36:33;;;;;;;;;;;;;;;12.72;59.89;99617.12;4375925;32;1119451;-86
2022/04/10 12:39:02;;;;;;;;;;;;;;;12.56;59.88;99598.66;4426063;32;19994;-85
2022/04/10 12:41:28;;;;;;;;;;;;;;;12.15;59.87;99608.19;4415081;32;20004;-86
2022/04/10 12:44:00;;;;;;;;;;;;;;;12.41;59.87;99594.06;4398944;32;20041;-86
2022/04/10 12:46:31;;;;;;;;;;;;;;;12.52;59.88;99607.50;4410803;32;19977;-87
2022/04/10 12:49:13;;;;;;;;;;;;;;;12.37;59.88;99614.25;4423188;32;20013;-87
2022/04/10 12:51:53;;;;;;;;;;;;;;;12.46;59.88;99599.94;4410664;32;19989;-86